createdAt,value
2018-05-11T04:10:08.862Z,1015.1
2018-05-11T04:10:34.359Z,1015.13
2018-05-11T04:10:59.834Z,1015.13
2018-05-11T04:11:25.275Z,1015.13
2018-05-11T04:11:50.764Z,1015.13
2018-05-11T04:12:16.204Z,1015.12
2018-05-11T04:12:41.625Z,1015.12
2018-05-11T04:13:07.183Z,1015.14
2018-05-11T04:13:32.608Z,1015.13
2018-05-11T04:13:58.050Z,1015.11
2018-05-11T04:14:23.591Z,1015.17
2018-05-11T04:14:49.000Z,1015.16
2018-05-11T04:15:14.481Z,1015.17
2018-05-11T04:15:39.920Z,1015.17
2018-05-11T04:16:05.391Z,1015.14
2018-05-11T04:16:30.859Z,1015.19
2018-05-11T04:16:56.555Z,1015.15
2018-05-11T04:17:21.841Z,1015.22
2018-05-11T04:17:47.564Z,1015.18
2018-05-11T04:18:12.895Z,1015.2
2018-05-11T04:18:38.412Z,1015.23
2018-05-11T04:19:04.028Z,1015.21
2018-05-11T04:19:29.529Z,1015.22
2018-05-11T04:19:55.067Z,1015.25
2018-05-11T04:20:20.556Z,1015.26
2018-05-11T04:20:46.227Z,1015.29
2018-05-11T04:21:11.494Z,1015.26
2018-05-11T04:21:36.955Z,1015.29
2018-05-11T04:22:02.465Z,1015.26
2018-05-11T04:22:27.856Z,1015.28
2018-05-11T04:22:53.304Z,1015.28
2018-05-11T04:23:18.827Z,1015.32
2018-05-11T04:23:44.306Z,1015.28
2018-05-11T04:24:09.768Z,1015.28
2018-05-11T04:24:35.280Z,1015.3
2018-05-11T04:25:00.782Z,1015.27
2018-05-11T04:25:26.440Z,1015.26
2018-05-11T04:25:51.680Z,1015.29
2018-05-11T04:27:00.354Z,1015.27
2018-05-11T04:27:25.863Z,1015.25
2018-05-11T04:27:51.371Z,1015.25
2018-05-11T04:28:16.966Z,1015.27
2018-05-11T04:28:42.436Z,1015.3
2018-05-11T04:29:07.922Z,1015.27
2018-05-11T04:29:33.334Z,1015.23
2018-05-11T04:29:58.795Z,1015.29
2018-05-11T04:30:24.667Z,1015.26
2018-05-11T04:30:50.200Z,1015.29
2018-05-11T04:31:16.020Z,1015.28
2018-05-11T04:31:41.661Z,1015.29
2018-05-11T04:32:07.176Z,1015.29
2018-05-11T04:32:32.774Z,1015.3
2018-05-11T04:32:58.361Z,1015.28
2018-05-11T04:33:24.174Z,1015.29
2018-05-11T04:33:50.186Z,1015.33
2018-05-11T04:34:15.891Z,1015.28
2018-05-11T04:34:41.525Z,1015.31
2018-05-11T04:35:07.161Z,1015.29
2018-05-11T04:35:32.968Z,1015.35
2018-05-11T04:35:58.662Z,1015.3
2018-05-11T04:36:57.288Z,1015.3
2018-05-11T04:37:22.784Z,1015.3
2018-05-11T04:37:48.291Z,1015.31
2018-05-11T04:38:13.810Z,1015.3
2018-05-11T04:38:39.437Z,1015.35
2018-05-11T04:39:04.908Z,1015.33
2018-05-11T04:39:30.458Z,1015.35
2018-05-11T04:39:55.923Z,1015.34
2018-05-11T04:40:21.446Z,1015.33
2018-05-11T04:40:46.924Z,1015.34
2018-05-11T04:41:12.443Z,1015.3
2018-05-11T04:41:38.019Z,1015.34
2018-05-11T04:42:03.472Z,1015.37
2018-05-11T04:42:28.959Z,1015.32
2018-05-11T04:42:54.529Z,1015.34
2018-05-11T04:43:20.118Z,1015.37
2018-05-11T04:43:45.718Z,1015.36
2018-05-11T04:44:11.142Z,1015.35
2018-05-11T04:44:36.620Z,1015.37
2018-05-11T04:45:02.099Z,1015.41
2018-05-11T04:45:27.642Z,1015.43
2018-05-11T04:45:53.133Z,1015.45
2018-05-11T04:46:18.639Z,1015.41
2018-05-11T04:46:44.092Z,1015.44
2018-05-11T04:47:09.595Z,1015.44
2018-05-11T04:47:35.072Z,1015.42
2018-05-11T04:48:00.485Z,1015.44
2018-05-11T04:48:25.971Z,1015.43
2018-05-11T04:48:51.437Z,1015.44
2018-05-11T04:49:16.916Z,1015.43
2018-05-11T04:49:42.366Z,1015.46
2018-05-11T04:50:07.840Z,1015.48
2018-05-11T04:50:33.371Z,1015.51
2018-05-11T04:50:58.849Z,1015.46
2018-05-11T04:51:24.354Z,1015.44
2018-05-11T04:51:49.750Z,1015.44
2018-05-11T04:52:15.200Z,1015.47
2018-05-11T04:52:40.637Z,1015.46
2018-05-11T04:53:06.102Z,1015.47
2018-05-11T04:53:31.576Z,1015.46
2018-05-11T04:54:30.125Z,1015.46
2018-05-11T04:54:55.626Z,1015.44
2018-05-11T04:55:21.116Z,1015.46
2018-05-11T04:55:46.573Z,1015.46
2018-05-11T04:56:12.081Z,1015.46
2018-05-11T04:56:37.552Z,1015.5
2018-05-11T04:57:03.024Z,1015.47
2018-05-11T04:57:28.468Z,1015.47
2018-05-11T04:57:53.990Z,1015.48
2018-05-11T04:58:19.448Z,1015.47
2018-05-11T04:58:44.899Z,1015.48
2018-05-11T04:59:10.422Z,1015.52
2018-05-11T04:59:35.868Z,1015.49
2018-05-11T05:00:01.316Z,1015.51
2018-05-11T05:00:26.776Z,1015.49
2018-05-11T05:00:52.234Z,1015.52
2018-05-11T05:01:17.717Z,1015.52
2018-05-11T05:01:43.169Z,1015.53
2018-05-11T05:02:08.685Z,1015.5
2018-05-11T05:02:34.169Z,1015.51
2018-05-11T05:02:59.652Z,1015.48
2018-05-11T05:03:25.118Z,1015.48
2018-05-11T05:03:50.564Z,1015.52
2018-05-11T05:04:16.026Z,1015.5
2018-05-11T05:04:41.481Z,1015.51
2018-05-11T05:05:07.289Z,1015.49
2018-05-11T05:05:32.931Z,1015.51
2018-05-11T05:06:00.195Z,1015.51
2018-05-11T05:06:32.445Z,1015.54
2018-05-11T05:06:58.827Z,1015.5
2018-05-11T05:07:25.483Z,1015.48
2018-05-11T05:07:52.716Z,1015.53
2018-05-11T05:08:19.346Z,1015.51
2018-05-11T05:08:45.873Z,1015.5
2018-05-11T05:09:12.601Z,1015.53
2018-05-11T05:09:40.192Z,1015.55
2018-05-11T05:10:06.524Z,1015.53
2018-05-11T05:10:35.178Z,1015.5
2018-05-11T05:11:00.831Z,1015.57
2018-05-11T05:11:28.000Z,1015.51
2018-05-11T05:11:56.007Z,1015.56
2018-05-11T05:12:24.092Z,1015.54
2018-05-11T05:12:51.526Z,1015.54
2018-05-11T05:13:17.701Z,1015.57
2018-05-11T05:13:47.589Z,1015.58
2018-05-11T05:14:12.883Z,1015.63
2018-05-11T05:14:38.664Z,1015.57
2018-05-11T05:15:04.113Z,1015.56
2018-05-11T05:15:29.557Z,1015.62
2018-05-11T05:15:55.044Z,1015.57
2018-05-11T05:16:20.472Z,1015.59
2018-05-11T05:16:45.968Z,1015.63
2018-05-11T05:17:11.423Z,1015.59
2018-05-11T05:17:36.890Z,1015.6
2018-05-11T05:18:02.360Z,1015.62
2018-05-11T05:18:27.828Z,1015.57
2018-05-11T05:18:53.248Z,1015.59
2018-05-11T05:19:18.798Z,1015.58
2018-05-11T05:19:44.154Z,1015.59
2018-05-11T05:20:09.694Z,1015.57
2018-05-11T05:20:35.171Z,1015.61
2018-05-11T05:21:00.627Z,1015.64
2018-05-11T05:21:26.100Z,1015.59
2018-05-11T05:21:51.556Z,1015.64
2018-05-11T05:22:17.026Z,1015.64
2018-05-11T05:22:42.486Z,1015.66
2018-05-11T05:23:07.910Z,1015.67
2018-05-11T05:23:33.404Z,1015.69
2018-05-11T05:23:58.892Z,1015.69
2018-05-11T05:24:24.357Z,1015.65
2018-05-11T05:24:49.798Z,1015.69
2018-05-11T05:25:15.244Z,1015.72
2018-05-11T05:25:40.763Z,1015.73
2018-05-11T05:26:06.195Z,1015.73
2018-05-11T05:26:31.676Z,1015.78
2018-05-11T05:26:57.111Z,1015.75
2018-05-11T05:27:22.593Z,1015.74
2018-05-11T05:27:48.079Z,1015.73
2018-05-11T05:28:13.523Z,1015.75
2018-05-11T05:29:32.420Z,1015.75
2018-05-11T05:29:57.910Z,1015.74
2018-05-11T05:30:23.433Z,1015.74
2018-05-11T05:30:48.917Z,1015.78
2018-05-11T05:31:14.424Z,1015.75
2018-05-11T05:31:39.877Z,1015.75
2018-05-11T05:32:05.351Z,1015.79
2018-05-11T05:32:30.823Z,1015.76
2018-05-11T05:32:56.253Z,1015.74
2018-05-11T05:33:21.709Z,1015.73
2018-05-11T05:33:47.185Z,1015.76
2018-05-11T05:34:12.639Z,1015.76
2018-05-11T05:34:38.095Z,1015.7
2018-05-11T05:35:03.554Z,1015.77
2018-05-11T05:35:28.999Z,1015.76
2018-05-11T05:35:54.456Z,1015.75
2018-05-11T05:36:19.931Z,1015.74
2018-05-11T05:36:45.403Z,1015.76
2018-05-11T05:37:10.864Z,1015.78
2018-05-11T05:37:36.354Z,1015.76
2018-05-11T05:38:01.818Z,1015.75
2018-05-11T05:38:27.362Z,1015.76
2018-05-11T05:38:52.797Z,1015.74
2018-05-11T05:39:18.341Z,1015.76
2018-05-11T05:39:43.790Z,1015.74
2018-05-11T05:40:09.280Z,1015.77
2018-05-11T05:40:34.730Z,1015.76
2018-05-11T05:41:00.196Z,1015.8
2018-05-11T05:41:25.662Z,1015.75
2018-05-11T05:41:51.110Z,1015.74
2018-05-11T05:42:16.581Z,1015.76
2018-05-11T05:42:42.036Z,1015.77
2018-05-11T05:43:07.493Z,1015.73
2018-05-11T05:43:32.962Z,1015.75
2018-05-11T05:43:58.447Z,1015.78
2018-05-11T05:44:24.003Z,1015.78
2018-05-11T05:44:49.434Z,1015.79
2018-05-11T05:45:14.922Z,1015.78
2018-05-11T05:45:40.420Z,1015.78
2018-05-11T05:46:05.868Z,1015.81
2018-05-11T05:46:31.344Z,1015.8
2018-05-11T05:46:56.797Z,1015.78
2018-05-11T05:47:22.254Z,1015.78
2018-05-11T05:47:47.712Z,1015.82
2018-05-11T05:48:13.194Z,1015.82
2018-05-11T05:48:38.629Z,1015.78
2018-05-11T05:49:04.166Z,1015.8
2018-05-11T05:49:29.698Z,1015.79
2018-05-11T05:49:55.196Z,1015.76
2018-05-11T05:50:20.665Z,1015.8
2018-05-11T05:50:46.088Z,1015.8
2018-05-11T05:51:11.737Z,1015.78
2018-05-11T05:51:37.408Z,1015.75
2018-05-11T05:52:02.861Z,1015.8
2018-05-11T05:52:28.244Z,1015.8
2018-05-11T05:52:53.687Z,1015.77
2018-05-11T05:53:19.146Z,1015.75
2018-05-11T05:53:44.659Z,1015.76
2018-05-11T05:54:10.149Z,1015.71
2018-05-11T05:54:35.618Z,1015.73
2018-05-11T05:55:01.088Z,1015.71
2018-05-11T05:55:26.568Z,1015.7
2018-05-11T05:55:51.988Z,1015.7
2018-05-11T05:56:17.446Z,1015.69
2018-05-11T05:56:42.921Z,1015.71
2018-05-11T05:57:08.353Z,1015.66
2018-05-11T05:57:33.814Z,1015.68
2018-05-11T05:57:59.257Z,1015.66
2018-05-11T05:58:24.739Z,1015.69
2018-05-11T05:58:50.207Z,1015.64
2018-05-11T05:59:15.661Z,1015.68
2018-05-11T05:59:41.119Z,1015.64
2018-05-11T06:00:06.600Z,1015.65
2018-05-11T06:00:32.068Z,1015.64
2018-05-11T06:00:57.508Z,1015.66
2018-05-11T06:01:22.985Z,1015.71
2018-05-11T06:01:48.458Z,1015.67
2018-05-11T06:02:13.944Z,1015.67
2018-05-11T06:02:39.418Z,1015.67
2018-05-11T06:03:04.948Z,1015.68
2018-05-11T06:03:30.387Z,1015.66
2018-05-11T06:03:55.866Z,1015.7
2018-05-11T06:04:21.337Z,1015.65
2018-05-11T06:04:46.793Z,1015.66
2018-05-11T06:05:12.247Z,1015.65
2018-05-11T06:05:37.736Z,1015.66
2018-05-11T06:06:03.196Z,1015.66
2018-05-11T06:06:28.639Z,1015.65
2018-05-11T06:06:54.092Z,1015.62
2018-05-11T06:07:19.595Z,1015.63
2018-05-11T06:07:45.034Z,1015.62
2018-05-11T06:08:10.501Z,1015.63
2018-05-11T06:08:35.949Z,1015.63
2018-05-11T06:09:01.386Z,1015.61
2018-05-11T06:09:26.871Z,1015.58
2018-05-11T06:09:52.303Z,1015.61
2018-05-11T06:10:17.771Z,1015.6
2018-05-11T06:10:43.198Z,1015.62
2018-05-11T06:11:08.665Z,1015.61
2018-05-11T06:11:34.130Z,1015.62
2018-05-11T06:11:59.568Z,1015.62
2018-05-11T06:12:25.031Z,1015.61
2018-05-11T06:12:50.503Z,1015.62
2018-05-11T06:13:16.028Z,1015.64
2018-05-11T06:13:41.424Z,1015.64
2018-05-11T06:14:06.870Z,1015.66
2018-05-11T06:14:32.368Z,1015.62
2018-05-11T06:14:57.843Z,1015.68
2018-05-11T06:15:23.314Z,1015.65
2018-05-11T06:15:48.842Z,1015.67
2018-05-11T06:16:14.284Z,1015.67
2018-05-11T06:16:39.741Z,1015.7
2018-05-11T06:17:05.161Z,1015.7
2018-05-11T06:18:08.775Z,1015.67
2018-05-11T06:18:34.269Z,1015.67
2018-05-11T06:18:59.776Z,1015.68
2018-05-11T06:19:25.233Z,1015.7
2018-05-11T06:19:50.708Z,1015.68
2018-05-11T06:20:16.208Z,1015.69
2018-05-11T06:20:41.671Z,1015.67
2018-05-11T06:21:07.113Z,1015.68
2018-05-11T06:21:32.579Z,1015.66
2018-05-11T06:22:40.736Z,1015.69
2018-05-11T06:23:06.232Z,1015.64
2018-05-11T06:23:31.704Z,1015.67
2018-05-11T06:23:57.194Z,1015.69
2018-05-11T06:24:22.660Z,1015.69
2018-05-11T06:24:48.167Z,1015.68
2018-05-11T06:25:13.564Z,1015.68
2018-05-11T06:25:39.037Z,1015.7
2018-05-11T06:26:04.474Z,1015.64
2018-05-11T06:26:29.996Z,1015.67
2018-05-11T06:26:55.444Z,1015.64
2018-05-11T06:27:20.911Z,1015.63
2018-05-11T06:27:46.387Z,1015.65
2018-05-11T06:28:11.984Z,1015.66
2018-05-11T06:28:37.447Z,1015.67
2018-05-11T06:29:02.947Z,1015.64
2018-05-11T06:29:28.425Z,1015.64
2018-05-11T06:29:53.894Z,1015.66
2018-05-11T06:30:19.339Z,1015.69
2018-05-11T06:30:44.797Z,1015.64
2018-05-11T06:31:10.304Z,1015.68
2018-05-11T06:31:35.733Z,1015.69
2018-05-11T06:32:01.211Z,1015.66
2018-05-11T06:32:26.680Z,1015.66
2018-05-11T06:33:35.363Z,1015.69
2018-05-11T06:34:00.876Z,1015.74
2018-05-11T06:34:26.435Z,1015.71
2018-05-11T06:34:51.898Z,1015.71
2018-05-11T06:35:17.374Z,1015.73
2018-05-11T06:35:42.800Z,1015.7
2018-05-11T06:36:08.244Z,1015.73
2018-05-11T06:36:33.732Z,1015.72
2018-05-11T06:36:59.159Z,1015.73
2018-05-11T06:37:24.600Z,1015.72
2018-05-11T06:37:50.031Z,1015.77
2018-05-11T06:38:15.554Z,1015.72
2018-05-11T06:38:40.990Z,1015.71
2018-05-11T06:39:06.458Z,1015.71
2018-05-11T06:39:31.911Z,1015.72
2018-05-11T06:39:57.373Z,1015.67
2018-05-11T06:40:22.873Z,1015.66
2018-05-11T06:40:48.312Z,1015.69
2018-05-11T06:41:13.746Z,1015.71
2018-05-11T06:41:39.283Z,1015.64
2018-05-11T06:42:04.725Z,1015.7
2018-05-11T06:42:30.198Z,1015.71
2018-05-11T06:42:55.663Z,1015.69
2018-05-11T06:43:21.132Z,1015.71
2018-05-11T06:43:46.655Z,1015.66
2018-05-11T06:44:12.151Z,1015.71
2018-05-11T06:44:37.574Z,1015.65
2018-05-11T06:45:03.093Z,1015.65
2018-05-11T06:45:28.566Z,1015.62
2018-05-11T06:45:54.105Z,1015.65
2018-05-11T06:46:19.506Z,1015.65
2018-05-11T06:46:44.941Z,1015.64
2018-05-11T06:47:10.426Z,1015.63
2018-05-11T06:47:35.954Z,1015.62
2018-05-11T06:48:01.428Z,1015.64
2018-05-11T06:48:26.867Z,1015.61
2018-05-11T06:48:52.356Z,1015.6
2018-05-11T06:49:17.819Z,1015.6
2018-05-11T06:49:43.260Z,1015.59
2018-05-11T06:50:08.748Z,1015.58
2018-05-11T06:50:34.189Z,1015.62
2018-05-11T06:50:59.652Z,1015.58
2018-05-11T06:51:25.105Z,1015.58
2018-05-11T06:51:50.600Z,1015.57
2018-05-11T06:52:16.025Z,1015.6
2018-05-11T06:52:41.495Z,1015.56
2018-05-11T06:53:06.945Z,1015.53
2018-05-11T06:53:32.488Z,1015.55
2018-05-11T06:53:57.946Z,1015.57
2018-05-11T06:54:23.379Z,1015.55
2018-05-11T06:54:48.852Z,1015.57
2018-05-11T06:55:14.342Z,1015.59
2018-05-11T06:55:39.800Z,1015.6
2018-05-11T06:56:05.284Z,1015.56
2018-05-11T06:56:30.752Z,1015.57
2018-05-11T06:56:56.217Z,1015.52
2018-05-11T06:57:21.722Z,1015.57
2018-05-11T06:57:47.131Z,1015.55
2018-05-11T06:58:12.571Z,1015.56
2018-05-11T06:58:38.019Z,1015.52
2018-05-11T06:59:03.495Z,1015.51
2018-05-11T06:59:28.982Z,1015.51
2018-05-11T06:59:54.472Z,1015.56
2018-05-11T07:00:19.914Z,1015.49
2018-05-11T07:00:45.372Z,1015.5
2018-05-11T07:01:10.877Z,1015.48
2018-05-11T07:01:36.416Z,1015.48
2018-05-11T07:02:01.768Z,1015.46
2018-05-11T07:02:27.213Z,1015.48
2018-05-11T07:02:52.660Z,1015.48
2018-05-11T07:03:18.146Z,1015.46
2018-05-11T07:03:43.589Z,1015.49
2018-05-11T07:04:09.125Z,1015.48
2018-05-11T07:04:34.530Z,1015.47
2018-05-11T07:04:59.998Z,1015.51
2018-05-11T07:05:25.433Z,1015.49
2018-05-11T07:05:50.922Z,1015.48
2018-05-11T07:06:16.389Z,1015.5
2018-05-11T07:06:41.861Z,1015.5
2018-05-11T07:07:07.324Z,1015.47
2018-05-11T07:07:32.950Z,1015.5
2018-05-11T07:07:58.445Z,1015.53
2018-05-11T07:08:23.862Z,1015.49
2018-05-11T07:08:49.295Z,1015.49
2018-05-11T07:09:14.774Z,1015.51
2018-05-11T07:09:40.236Z,1015.52
2018-05-11T07:10:05.722Z,1015.53
2018-05-11T07:10:31.206Z,1015.54
2018-05-11T07:10:56.660Z,1015.49
2018-05-11T07:11:22.135Z,1015.51
2018-05-11T07:11:47.604Z,1015.53
2018-05-11T07:12:51.181Z,1015.54
2018-05-11T07:13:16.754Z,1015.53
2018-05-11T07:13:42.197Z,1015.53
2018-05-11T07:14:07.683Z,1015.53
2018-05-11T07:14:33.115Z,1015.54
2018-05-11T07:14:58.598Z,1015.54
2018-05-11T07:15:24.070Z,1015.55
2018-05-11T07:15:49.609Z,1015.58
2018-05-11T07:16:15.084Z,1015.54
2018-05-11T07:16:40.616Z,1015.58
2018-05-11T07:17:07.082Z,1015.55
2018-05-11T07:17:32.442Z,1015.57
2018-05-11T07:17:58.502Z,1015.58
2018-05-11T07:18:23.917Z,1015.6
2018-05-11T07:18:49.407Z,1015.57
2018-05-11T07:19:14.930Z,1015.52
2018-05-11T07:19:40.522Z,1015.59
2018-05-11T07:20:05.989Z,1015.55
2018-05-11T07:20:31.456Z,1015.6
2018-05-11T07:20:56.928Z,1015.54
2018-05-11T07:21:22.518Z,1015.52
2018-05-11T07:21:47.948Z,1015.52
2018-05-11T07:22:13.455Z,1015.52
2018-05-11T07:22:39.216Z,1015.53
2018-05-11T07:23:04.700Z,1015.51
2018-05-11T07:23:30.147Z,1015.48
2018-05-11T07:23:55.614Z,1015.47
2018-05-11T07:24:21.073Z,1015.53
2018-05-11T07:24:46.571Z,1015.5
2018-05-11T07:25:11.993Z,1015.49
2018-05-11T07:25:37.501Z,1015.5
2018-05-11T07:26:02.956Z,1015.46
2018-05-11T07:26:28.505Z,1015.5
2018-05-11T07:26:53.991Z,1015.47
2018-05-11T07:27:19.449Z,1015.49
2018-05-11T07:27:44.999Z,1015.51
2018-05-11T07:28:10.484Z,1015.48
2018-05-11T07:28:36.090Z,1015.5
2018-05-11T07:29:01.641Z,1015.51
2018-05-11T07:29:27.196Z,1015.49
2018-05-11T07:29:52.679Z,1015.51
2018-05-11T07:30:18.209Z,1015.49
2018-05-11T07:30:43.772Z,1015.47
2018-05-11T07:31:09.308Z,1015.53
2018-05-11T07:31:34.861Z,1015.48
2018-05-11T07:32:00.324Z,1015.46
2018-05-11T07:32:26.195Z,1015.5
2018-05-11T07:32:51.624Z,1015.52
2018-05-11T07:33:17.107Z,1015.51
2018-05-11T07:33:42.586Z,1015.48
2018-05-11T07:34:08.078Z,1015.48
2018-05-11T07:34:33.573Z,1015.53
2018-05-11T07:34:59.109Z,1015.5
2018-05-11T07:35:24.529Z,1015.52
2018-05-11T07:35:50.081Z,1015.49
2018-05-11T07:36:15.596Z,1015.54
2018-05-11T07:36:41.100Z,1015.54
2018-05-11T07:37:06.634Z,1015.54
2018-05-11T07:37:32.160Z,1015.52
2018-05-11T07:37:57.679Z,1015.48
2018-05-11T07:38:23.326Z,1015.56
2018-05-11T07:38:48.662Z,1015.53
2018-05-11T07:39:14.555Z,1015.49
2018-05-11T07:39:39.920Z,1015.5
2018-05-11T07:40:05.254Z,1015.49
2018-05-11T07:40:30.737Z,1015.48
2018-05-11T07:40:56.247Z,1015.51
2018-05-11T07:41:21.771Z,1015.49
2018-05-11T07:41:47.304Z,1015.48
2018-05-11T07:42:12.834Z,1015.51
2018-05-11T07:42:38.315Z,1015.55
2018-05-11T07:43:03.827Z,1015.51
2018-05-11T07:43:29.372Z,1015.52
2018-05-11T07:43:54.858Z,1015.53
2018-05-11T07:44:20.363Z,1015.5
2018-05-11T07:44:45.896Z,1015.5
2018-05-11T07:45:11.385Z,1015.54
2018-05-11T07:45:36.882Z,1015.54
2018-05-11T07:46:02.382Z,1015.48
2018-05-11T07:46:27.916Z,1015.48
2018-05-11T07:46:53.382Z,1015.48
2018-05-11T07:47:18.884Z,1015.47
2018-05-11T07:47:44.416Z,1015.5
2018-05-11T07:48:09.943Z,1015.47
2018-05-11T07:48:35.477Z,1015.44
2018-05-11T07:49:01.009Z,1015.46
2018-05-11T07:49:26.544Z,1015.45
2018-05-11T07:49:52.125Z,1015.48
2018-05-11T07:50:17.650Z,1015.48
2018-05-11T07:50:43.200Z,1015.45
2018-05-11T07:51:08.705Z,1015.48
2018-05-11T07:51:34.193Z,1015.47
2018-05-11T07:51:59.706Z,1015.47
2018-05-11T07:52:25.194Z,1015.5
2018-05-11T07:52:50.784Z,1015.52
2018-05-11T07:53:16.338Z,1015.52
2018-05-11T07:53:41.925Z,1015.48
2018-05-11T07:54:07.516Z,1015.5
2018-05-11T07:54:32.973Z,1015.48
2018-05-11T07:54:58.625Z,1015.49
2018-05-11T07:55:24.085Z,1015.47
2018-05-11T07:55:49.608Z,1015.48
2018-05-11T07:56:15.137Z,1015.44
2018-05-11T07:56:40.648Z,1015.51
2018-05-11T07:57:06.142Z,1015.47
2018-05-11T07:57:31.634Z,1015.49
2018-05-11T07:57:57.181Z,1015.45
2018-05-11T07:58:22.727Z,1015.47
2018-05-11T07:58:48.229Z,1015.46
2018-05-11T07:59:13.710Z,1015.47
2018-05-11T07:59:39.237Z,1015.5
2018-05-11T08:00:04.738Z,1015.49
2018-05-11T08:00:30.323Z,1015.48
2018-05-11T08:00:55.775Z,1015.49
2018-05-11T08:01:21.311Z,1015.49
2018-05-11T08:01:46.806Z,1015.49
2018-05-11T08:02:12.320Z,1015.52
2018-05-11T08:02:37.856Z,1015.58
2018-05-11T08:03:03.427Z,1015.47
2018-05-11T08:03:28.891Z,1015.49
2018-05-11T08:03:54.497Z,1015.52
2018-05-11T08:04:19.986Z,1015.51
2018-05-11T08:04:45.433Z,1015.55
2018-05-11T08:05:10.960Z,1015.5
2018-05-11T08:05:36.496Z,1015.51
2018-05-11T08:06:01.984Z,1015.5
2018-05-11T08:06:27.503Z,1015.5
2018-05-11T08:06:53.009Z,1015.5
2018-05-11T08:07:18.486Z,1015.49
2018-05-11T08:07:44.442Z,1015.51
2018-05-11T08:08:10.000Z,1015.53
2018-05-11T08:08:35.428Z,1015.52
2018-05-11T08:09:33.967Z,1015.54
2018-05-11T08:09:59.483Z,1015.51
2018-05-11T08:10:24.991Z,1015.52
2018-05-11T08:10:50.427Z,1015.5
2018-05-11T08:11:15.889Z,1015.52
2018-05-11T08:11:41.432Z,1015.51
2018-05-11T08:12:06.910Z,1015.51
2018-05-11T08:12:32.333Z,1015.51
2018-05-11T08:12:57.811Z,1015.52
2018-05-11T08:13:23.319Z,1015.52
2018-05-11T08:13:48.775Z,1015.51
2018-05-11T08:14:14.281Z,1015.52
2018-05-11T08:14:39.681Z,1015.52
2018-05-11T08:15:05.180Z,1015.53
2018-05-11T08:16:13.372Z,1015.5
2018-05-11T08:16:38.882Z,1015.46
2018-05-11T08:17:04.413Z,1015.51
2018-05-11T08:17:29.885Z,1015.46
2018-05-11T08:17:55.467Z,1015.48
2018-05-11T08:18:20.866Z,1015.47
2018-05-11T08:18:46.309Z,1015.48
2018-05-11T08:19:11.760Z,1015.5
2018-05-11T08:19:37.224Z,1015.48
2018-05-11T08:20:02.701Z,1015.48
2018-05-11T08:20:28.242Z,1015.5
2018-05-11T08:20:53.721Z,1015.49
2018-05-11T08:21:19.184Z,1015.48
2018-05-11T08:21:44.676Z,1015.51
2018-05-11T08:22:10.130Z,1015.5
2018-05-11T08:22:35.571Z,1015.48
2018-05-11T08:23:01.031Z,1015.49
2018-05-11T08:23:26.481Z,1015.53
2018-05-11T08:23:51.951Z,1015.45
2018-05-11T08:24:17.447Z,1015.48
2018-05-11T08:24:42.856Z,1015.48
2018-05-11T08:25:08.305Z,1015.49
2018-05-11T08:25:33.760Z,1015.48
2018-05-11T08:25:59.243Z,1015.46
2018-05-11T08:26:24.765Z,1015.48
2018-05-11T08:26:50.287Z,1015.45
2018-05-11T08:27:15.781Z,1015.43
2018-05-11T08:27:41.242Z,1015.43
2018-05-11T08:28:06.719Z,1015.49
2018-05-11T08:28:32.239Z,1015.48
2018-05-11T08:28:57.791Z,1015.42
2018-05-11T08:29:23.270Z,1015.44
2018-05-11T08:29:48.738Z,1015.45
2018-05-11T08:30:14.281Z,1015.44
2018-05-11T08:30:39.860Z,1015.45
2018-05-11T08:31:05.388Z,1015.4
2018-05-11T08:31:30.872Z,1015.45
2018-05-11T08:31:56.359Z,1015.39
2018-05-11T08:32:21.910Z,1015.39
2018-05-11T08:32:47.409Z,1015.4
2018-05-11T08:33:12.947Z,1015.36
2018-05-11T08:33:38.411Z,1015.38
2018-05-11T08:34:03.907Z,1015.37
2018-05-11T08:34:29.460Z,1015.34
2018-05-11T08:34:55.001Z,1015.39
2018-05-11T08:35:20.487Z,1015.38
2018-05-11T08:35:45.917Z,1015.39
2018-05-11T08:36:11.418Z,1015.41
2018-05-11T08:36:36.880Z,1015.4
2018-05-11T08:37:02.388Z,1015.41
2018-05-11T08:37:27.924Z,1015.39
2018-05-11T08:37:53.410Z,1015.33
2018-05-11T08:38:18.998Z,1015.29
2018-05-11T08:38:44.365Z,1015.33
2018-05-11T08:39:09.865Z,1015.34
2018-05-11T08:39:35.334Z,1015.34
2018-05-11T08:40:00.782Z,1015.34
2018-05-11T08:40:26.272Z,1015.34
2018-05-11T08:40:51.751Z,1015.36
2018-05-11T08:41:17.201Z,1015.37
2018-05-11T08:41:42.731Z,1015.3
2018-05-11T08:42:08.230Z,1015.29
2018-05-11T08:42:33.669Z,1015.33
2018-05-11T08:42:59.179Z,1015.27
2018-05-11T08:43:24.671Z,1015.31
2018-05-11T08:43:50.146Z,1015.3
2018-05-11T08:44:15.643Z,1015.3
2018-05-11T08:44:41.048Z,1015.32
2018-05-11T08:45:06.514Z,1015.34
2018-05-11T08:45:32.035Z,1015.34
2018-05-11T08:45:57.511Z,1015.34
2018-05-11T08:46:23.016Z,1015.25
2018-05-11T08:46:48.451Z,1015.3
2018-05-11T08:47:13.967Z,1015.29
2018-05-11T08:47:39.438Z,1015.21
2018-05-11T08:48:05.012Z,1015.27
2018-05-11T08:48:30.563Z,1015.25
2018-05-11T08:48:56.060Z,1015.25
2018-05-11T08:49:21.516Z,1015.23
2018-05-11T08:49:47.022Z,1015.25
2018-05-11T08:50:12.514Z,1015.23
2018-05-11T08:50:37.936Z,1015.29
2018-05-11T08:51:03.435Z,1015.22
2018-05-11T08:51:28.895Z,1015.2
2018-05-11T08:51:54.477Z,1015.22
2018-05-11T08:52:19.870Z,1015.22
2018-05-11T08:52:45.331Z,1015.2
2018-05-11T08:53:10.908Z,1015.19
2018-05-11T08:53:36.364Z,1015.2
2018-05-11T08:54:01.814Z,1015.16
2018-05-11T08:54:27.278Z,1015.16
2018-05-11T08:54:52.766Z,1015.13
2018-05-11T08:55:18.253Z,1015.11
2018-05-11T08:55:43.707Z,1015.15
2018-05-11T08:56:09.133Z,1015.15
2018-05-11T08:56:34.600Z,1015.13
2018-05-11T08:57:00.081Z,1015.15
2018-05-11T08:57:25.592Z,1015.15
2018-05-11T08:57:51.087Z,1015.16
2018-05-11T08:58:16.550Z,1015.16
2018-05-11T08:59:19.697Z,1015.15
2018-05-11T08:59:45.200Z,1015.13
2018-05-11T09:00:10.626Z,1015.16
2018-05-11T09:00:36.138Z,1015.15
2018-05-11T09:01:01.584Z,1015.11
2018-05-11T09:01:27.045Z,1015.12
2018-05-11T09:01:52.569Z,1015.14
2018-05-11T09:02:17.988Z,1015.09
2018-05-11T09:02:43.440Z,1015.08
2018-05-11T09:03:08.907Z,1015.07
2018-05-11T09:03:34.329Z,1015.1
2018-05-11T09:03:59.794Z,1015.07
2018-05-11T09:04:25.313Z,1015.1
2018-05-11T09:04:50.831Z,1015.08
2018-05-11T09:05:16.290Z,1015.11
2018-05-11T09:05:41.766Z,1015.05
2018-05-11T09:06:07.206Z,1015.09
2018-05-11T09:06:32.697Z,1015.07
2018-05-11T09:06:58.129Z,1015.08
2018-05-11T09:07:23.611Z,1015.06
2018-05-11T09:07:49.063Z,1015.09
2018-05-11T09:08:14.500Z,1015.09
2018-05-11T09:08:40.053Z,1015.07
2018-05-11T09:09:05.397Z,1015.09
2018-05-11T09:09:30.889Z,1015.12
2018-05-11T09:09:56.347Z,1015.1
2018-05-11T09:10:21.804Z,1015.12
2018-05-11T09:10:47.270Z,1015.1
2018-05-11T09:11:12.758Z,1015.1
2018-05-11T09:11:38.224Z,1015.08
2018-05-11T09:12:03.676Z,1015.11
2018-05-11T09:12:29.119Z,1015.1
2018-05-11T09:12:54.619Z,1015.11
2018-05-11T09:13:20.039Z,1015.08
2018-05-11T09:13:45.526Z,1015.07
2018-05-11T09:14:11.022Z,1015.11
2018-05-11T09:14:36.501Z,1015.12
2018-05-11T09:15:01.924Z,1015.1
2018-05-11T09:15:27.400Z,1015.07
2018-05-11T09:15:52.888Z,1015.05
2018-05-11T09:16:18.374Z,1015.04
2018-05-11T09:16:43.912Z,1015.05
2018-05-11T09:17:09.349Z,1015.04
2018-05-11T09:17:35.819Z,1015.05
2018-05-11T09:18:01.201Z,1015.07
2018-05-11T09:18:26.667Z,1015.02
2018-05-11T09:18:52.129Z,1015.02
2018-05-11T09:19:17.756Z,1014.99
2018-05-11T09:19:43.234Z,1015.01
2018-05-11T09:20:08.706Z,1014.99
2018-05-11T09:20:34.129Z,1015
2018-05-11T09:20:59.601Z,1015.02
2018-05-11T09:21:25.089Z,1015.03
2018-05-11T09:21:50.555Z,1015.01
2018-05-11T09:22:16.072Z,1015.01
2018-05-11T09:22:41.523Z,1015
2018-05-11T09:23:06.984Z,1015.01
2018-05-11T09:24:05.510Z,1015.01
2018-05-11T09:24:30.990Z,1015.06
2018-05-11T09:24:56.488Z,1015.06
2018-05-11T09:25:21.940Z,1015.04
2018-05-11T09:25:47.423Z,1015.05
2018-05-11T09:26:12.892Z,1015
2018-05-11T09:26:38.332Z,1015.04
2018-05-11T09:27:03.786Z,1014.97
2018-05-11T09:27:29.285Z,1014.97
2018-05-11T09:27:54.772Z,1014.94